sensor_id;sensor_type;location;lat;lon;timestamp;pressure;altitude;pressure_sealevel;temperature;humidity
82148;BME280;71718;50.480;12.110;2024-03-23T00:53:07;96882.28;;;6.18;73.72
82148;BME280;71718;50.480;12.110;2024-03-23T00:55:33;96878.88;;;6.11;74.49
82148;BME280;71718;50.480;12.110;2024-03-23T00:57:58;96877.66;;;6.07;75.10
82148;BME280;71718;50.480;12.110;2024-03-23T01:00:24;96871.69;;;6.00;74.80
82148;BME280;71718;50.480;12.110;2024-03-23T01:02:49;96871.28;;;5.96;74.88
82148;BME280;71718;50.480;12.110;2024-03-23T01:05:14;96862.94;;;5.94;75.25
82148;BME280;71718;50.480;12.110;2024-03-23T01:07:40;96856.59;;;5.90;75.04
82148;BME280;71718;50.480;12.110;2024-03-23T01:10:05;96852.44;;;5.89;75.25
82148;BME280;71718;50.480;12.110;2024-03-23T01:12:31;96844.31;;;5.85;75.13
82148;BME280;71718;50.480;12.110;2024-03-23T01:14:56;96832.81;;;5.81;75.25
82148;BME280;71718;50.480;12.110;2024-03-23T01:17:22;96831.63;;;5.77;75.29
82148;BME280;71718;50.480;12.110;2024-03-23T01:19:47;96834.56;;;5.74;74.90
82148;BME280;71718;50.480;12.110;2024-03-23T01:22:12;96830.59;;;5.65;75.32
82148;BME280;71718;50.480;12.110;2024-03-23T01:24:38;96832.75;;;5.62;75.51
82148;BME280;71718;50.480;12.110;2024-03-23T01:27:03;96825.41;;;5.59;75.67
82148;BME280;71718;50.480;12.110;2024-03-23T01:29:29;96820.84;;;5.54;75.86
82148;BME280;71718;50.480;12.110;2024-03-23T01:31:54;96820.44;;;5.51;76.04
82148;BME280;71718;50.480;12.110;2024-03-23T01:34:20;96810.13;;;5.44;75.88
82148;BME280;71718;50.480;12.110;2024-03-23T01:36:45;96816.66;;;5.46;76.40
82148;BME280;71718;50.480;12.110;2024-03-23T01:39:11;96816.28;;;5.49;75.79
82148;BME280;71718;50.480;12.110;2024-03-23T01:41:36;96817.25;;;5.48;76.06
82148;BME280;71718;50.480;12.110;2024-03-23T01:44:05;96809.53;;;5.48;75.69
82148;BME280;71718;50.480;12.110;2024-03-23T01:46:30;96808.72;;;5.41;75.51
82148;BME280;71718;50.480;12.110;2024-03-23T01:48:56;96811.50;;;5.40;76.57
82148;BME280;71718;50.480;12.110;2024-03-23T01:51:22;96810.69;;;5.39;76.07
82148;BME280;71718;50.480;12.110;2024-03-23T01:53:48;96808.13;;;5.39;76.13
82148;BME280;71718;50.480;12.110;2024-03-23T01:56:13;96798.00;;;5.38;75.95
82148;BME280;71718;50.480;12.110;2024-03-23T01:58:38;96795.44;;;5.38;75.83
82148;BME280;71718;50.480;12.110;2024-03-23T02:01:04;96790.47;;;5.30;75.07
82148;BME280;71718;50.480;12.110;2024-03-23T02:03:29;96779.13;;;5.18;74.67
82148;BME280;71718;50.480;12.110;2024-03-23T02:05:56;96778.72;;;5.14;76.08
82148;BME280;71718;50.480;12.110;2024-03-23T02:08:22;96772.97;;;5.12;75.56
82148;BME280;71718;50.480;12.110;2024-03-23T02:10:48;96762.09;;;5.10;75.94
82148;BME280;71718;50.480;12.110;2024-03-23T02:13:14;96766.63;;;5.08;75.87
82148;BME280;71718;50.480;12.110;2024-03-23T02:15:40;96766.81;;;5.00;75.25
82148;BME280;71718;50.480;12.110;2024-03-23T02:18:07;96766.53;;;4.88;75.11
82148;BME280;71718;50.480;12.110;2024-03-23T02:20:33;96763.31;;;4.80;76.17
82148;BME280;71718;50.480;12.110;2024-03-23T02:22:58;96765.88;;;4.73;76.20
82148;BME280;71718;50.480;12.110;2024-03-23T02:25:24;96766.00;;;4.65;76.72
82148;BME280;71718;50.480;12.110;2024-03-23T02:27:49;96755.13;;;4.63;76.66
82148;BME280;71718;50.480;12.110;2024-03-23T02:30:14;96746.59;;;4.56;77.40
82148;BME280;71718;50.480;12.110;2024-03-23T02:32:40;96738.88;;;4.56;77.95
82148;BME280;71718;50.480;12.110;2024-03-23T02:35:06;96741.84;;;4.53;77.32
82148;BME280;71718;50.480;12.110;2024-03-23T02:37:31;96732.88;;;4.49;77.73
82148;BME280;71718;50.480;12.110;2024-03-23T02:39:57;96734.88;;;4.47;77.57
82148;BME280;71718;50.480;12.110;2024-03-23T02:42:22;96737.41;;;4.40;77.43
82148;BME280;71718;50.480;12.110;2024-03-23T02:44:47;96725.50;;;4.33;77.64
82148;BME280;71718;50.480;12.110;2024-03-23T02:47:13;96716.75;;;4.27;76.61
82148;BME280;71718;50.480;12.110;2024-03-23T02:49:38;96717.91;;;4.25;78.22
82148;BME280;71718;50.480;12.110;2024-03-23T02:52:04;96716.72;;;4.20;77.85
82148;BME280;71718;50.480;12.110;2024-03-23T02:54:29;96712.72;;;4.18;78.88
82148;BME280;71718;50.480;12.110;2024-03-23T02:56:54;96712.38;;;4.21;77.64
82148;BME280;71718;50.480;12.110;2024-03-23T02:59:20;96711.34;;;4.15;76.85
82148;BME280;71718;50.480;12.110;2024-03-23T03:01:46;96703.00;;;4.07;76.94
82148;BME280;71718;50.480;12.110;2024-03-23T03:04:11;96682.41;;;4.00;77.63
82148;BME280;71718;50.480;12.110;2024-03-23T03:06:36;96681.78;;;3.98;78.05
82148;BME280;71718;50.480;12.110;2024-03-23T03:09:02;96684.16;;;4.00;78.34
82148;BME280;71718;50.480;12.110;2024-03-23T03:11:27;96678.84;;;4.01;78.58
82148;BME280;71718;50.480;12.110;2024-03-23T03:13:53;96673.50;;;4.03;78.31
82148;BME280;71718;50.480;12.110;2024-03-23T03:16:18;96677.84;;;4.02;78.25
82148;BME280;71718;50.480;12.110;2024-03-23T03:18:44;96667.38;;;4.04;77.61
82148;BME280;71718;50.480;12.110;2024-03-23T03:21:09;96664.19;;;3.95;76.40
82148;BME280;71718;50.480;12.110;2024-03-23T03:23:34;96657.59;;;3.86;77.24
82148;BME280;71718;50.480;12.110;2024-03-23T03:26:00;96664.06;;;3.82;78.22
82148;BME280;71718;50.480;12.110;2024-03-23T03:28:25;96656.13;;;3.77;78.27
82148;BME280;71718;50.480;12.110;2024-03-23T03:30:51;96653.78;;;3.75;77.98
82148;BME280;71718;50.480;12.110;2024-03-23T03:33:16;96651.00;;;3.77;77.72
82148;BME280;71718;50.480;12.110;2024-03-23T03:35:41;96645.13;;;3.83;78.15
82148;BME280;71718;50.480;12.110;2024-03-23T03:38:07;96645.91;;;3.84;77.97
82148;BME280;71718;50.480;12.110;2024-03-23T03:40:32;96649.63;;;3.81;77.98
82148;BME280;71718;50.480;12.110;2024-03-23T03:42:58;96632.63;;;3.73;76.82
82148;BME280;71718;50.480;12.110;2024-03-23T03:45:23;96627.59;;;3.65;77.27
82148;BME280;71718;50.480;12.110;2024-03-23T03:47:48;96618.63;;;3.55;76.99
82148;BME280;71718;50.480;12.110;2024-03-23T03:50:14;96626.88;;;3.50;77.91
82148;BME280;71718;50.480;12.110;2024-03-23T03:52:39;96604.38;;;3.52;79.07
82148;BME280;71718;50.480;12.110;2024-03-23T03:55:12;96598.88;;;3.55;78.94
82148;BME280;71718;50.480;12.110;2024-03-23T03:57:38;96596.53;;;3.60;78.77
82148;BME280;71718;50.480;12.110;2024-03-23T04:00:03;96580.94;;;3.62;78.05
82148;BME280;71718;50.480;12.110;2024-03-23T04:02:29;96566.34;;;3.62;77.67
82148;BME280;71718;50.480;12.110;2024-03-23T04:04:54;96567.13;;;3.63;77.30
82148;BME280;71718;50.480;12.110;2024-03-23T04:07:20;96564.16;;;3.59;77.40
82148;BME280;71718;50.480;12.110;2024-03-23T04:09:45;96568.28;;;3.54;77.19
82148;BME280;71718;50.480;12.110;2024-03-23T04:12:10;96556.19;;;3.48;76.69
82148;BME280;71718;50.480;12.110;2024-03-23T04:14:36;96558.53;;;3.43;77.18
82148;BME280;71718;50.480;12.110;2024-03-23T04:17:01;96554.78;;;3.45;77.58
82148;BME280;71718;50.480;12.110;2024-03-23T04:19:27;96556.59;;;3.51;77.95
82148;BME280;71718;50.480;12.110;2024-03-23T04:21:52;96549.97;;;3.63;77.62
82148;BME280;71718;50.480;12.110;2024-03-23T04:24:17;96540.78;;;3.75;77.09
82148;BME280;71718;50.480;12.110;2024-03-23T04:26:43;96529.97;;;3.87;76.61
82148;BME280;71718;50.480;12.110;2024-03-23T04:29:08;96531.19;;;3.97;75.73
82148;BME280;71718;50.480;12.110;2024-03-23T04:31:34;96529.28;;;4.06;75.42
82148;BME280;71718;50.480;12.110;2024-03-23T04:33:59;96526.13;;;4.10;75.00
82148;BME280;71718;50.480;12.110;2024-03-23T04:36:25;96505.59;;;4.17;74.18
82148;BME280;71718;50.480;12.110;2024-03-23T04:38:50;96498.69;;;4.24;74.32
82148;BME280;71718;50.480;12.110;2024-03-23T04:41:15;96488.63;;;4.29;73.21
82148;BME280;71718;50.480;12.110;2024-03-23T04:43:41;96487.06;;;4.35;73.18
82148;BME280;71718;50.480;12.110;2024-03-23T04:46:06;96494.78;;;4.41;72.45
82148;BME280;71718;50.480;12.110;2024-03-23T04:48:32;96509.81;;;4.44;72.46
82148;BME280;71718;50.480;12.110;2024-03-23T04:50:57;96515.38;;;4.48;72.45
82148;BME280;71718;50.480;12.110;2024-03-23T04:53:24;96516.16;;;4.55;72.11
82148;BME280;71718;50.480;12.110;2024-03-23T04:55:49;96514.97;;;4.64;71.91
82148;BME280;71718;50.480;12.110;2024-03-23T04:58:15;96493.25;;;4.80;70.99
82148;BME280;71718;50.480;12.110;2024-03-23T05:00:40;96471.47;;;4.95;70.48
82148;BME280;71718;50.480;12.110;2024-03-23T05:03:05;96478.78;;;5.12;72.32
82148;BME280;71718;50.480;12.110;2024-03-23T05:05:31;96491.84;;;5.30;72.15
82148;BME280;71718;50.480;12.110;2024-03-23T05:07:56;96484.88;;;5.50;74.41
82148;BME280;71718;50.480;12.110;2024-03-23T05:10:22;96466.84;;;5.57;71.57
82148;BME280;71718;50.480;12.110;2024-03-23T05:12:47;96461.72;;;5.50;71.51
82148;BME280;71718;50.480;12.110;2024-03-23T05:15:13;96462.34;;;5.39;69.52
82148;BME280;71718;50.480;12.110;2024-03-23T05:17:38;96458.22;;;5.25;69.18
82148;BME280;71718;50.480;12.110;2024-03-23T05:20:04;96465.94;;;5.18;69.72
82148;BME280;71718;50.480;12.110;2024-03-23T05:22:30;96455.81;;;5.17;69.70
82148;BME280;71718;50.480;12.110;2024-03-23T05:24:55;96449.31;;;5.14;69.30
82148;BME280;71718;50.480;12.110;2024-03-23T05:27:21;96445.16;;;5.13;69.44
82148;BME280;71718;50.480;12.110;2024-03-23T05:29:46;96439.59;;;5.16;69.59
82148;BME280;71718;50.480;12.110;2024-03-23T05:32:11;96433.69;;;5.16;70.12
82148;BME280;71718;50.480;12.110;2024-03-23T05:34:37;96430.69;;;5.19;70.08
82148;BME280;71718;50.480;12.110;2024-03-23T05:37:02;96436.03;;;5.24;69.35
82148;BME280;71718;50.480;12.110;2024-03-23T05:39:28;96434.44;;;5.29;69.39
82148;BME280;71718;50.480;12.110;2024-03-23T05:41:53;96438.78;;;5.35;69.57
82148;BME280;71718;50.480;12.110;2024-03-23T05:44:19;96432.59;;;5.43;70.44
82148;BME280;71718;50.480;12.110;2024-03-23T05:46:45;96442.91;;;5.43;71.65
82148;BME280;71718;50.480;12.110;2024-03-23T05:49:10;96428.44;;;5.42;70.81
82148;BME280;71718;50.480;12.110;2024-03-23T05:51:36;96413.19;;;5.47;74.02
82148;BME280;71718;50.480;12.110;2024-03-23T05:54:01;96408.25;;;5.45;75.96
82148;BME280;71718;50.480;12.110;2024-03-23T05:56:26;96401.94;;;5.41;70.98
82148;BME280;71718;50.480;12.110;2024-03-23T05:58:52;96385.88;;;5.39;70.24
82148;BME280;71718;50.480;12.110;2024-03-23T06:01:17;96377.38;;;5.39;69.86
82148;BME280;71718;50.480;12.110;2024-03-23T06:03:43;96373.63;;;5.41;69.69
82148;BME280;71718;50.480;12.110;2024-03-23T06:06:08;96378.53;;;5.43;70.11
82148;BME280;71718;50.480;12.110;2024-03-23T06:08:34;96371.97;;;5.47;69.80
82148;BME280;71718;50.480;12.110;2024-03-23T06:10:59;96363.06;;;5.56;72.54
82148;BME280;71718;50.480;12.110;2024-03-23T06:13:24;96356.69;;;5.59;70.77
82148;BME280;71718;50.480;12.110;2024-03-23T06:15:50;96355.50;;;5.61;70.90
82148;BME280;71718;50.480;12.110;2024-03-23T06:18:15;96356.47;;;5.67;69.41
82148;BME280;71718;50.480;12.110;2024-03-23T06:20:41;96348.84;;;5.78;75.83
82148;BME280;71718;50.480;12.110;2024-03-23T06:23:06;96335.97;;;5.78;74.47
82148;BME280;71718;50.480;12.110;2024-03-23T06:25:32;96346.88;;;5.80;74.05
82148;BME280;71718;50.480;12.110;2024-03-23T06:27:57;96350.25;;;5.81;72.43
82148;BME280;71718;50.480;12.110;2024-03-23T06:30:22;96346.84;;;5.87;70.93
82148;BME280;71718;50.480;12.110;2024-03-23T06:32:48;96341.22;;;5.97;75.22
82148;BME280;71718;50.480;12.110;2024-03-23T06:35:13;96341.19;;;6.03;70.66
82148;BME280;71718;50.480;12.110;2024-03-23T06:37:39;96331.66;;;6.10;74.16
82148;BME280;71718;50.480;12.110;2024-03-23T06:40:05;96320.47;;;6.23;76.44
82148;BME280;71718;50.480;12.110;2024-03-23T06:42:30;96319.31;;;6.44;75.13
82148;BME280;71718;50.480;12.110;2024-03-23T06:44:56;96317.91;;;6.66;77.97
82148;BME280;71718;50.480;12.110;2024-03-23T06:47:21;96308.25;;;6.80;72.10
82148;BME280;71718;50.480;12.110;2024-03-23T06:49:47;96295.63;;;7.08;79.89
82148;BME280;71718;50.480;12.110;2024-03-23T06:52:12;96310.19;;;7.21;77.60
82148;BME280;71718;50.480;12.110;2024-03-23T06:54:37;96311.81;;;7.33;80.57
82148;BME280;71718;50.480;12.110;2024-03-23T06:57:03;96310.06;;;7.45;78.68
82148;BME280;71718;50.480;12.110;2024-03-23T06:59:28;96305.81;;;7.51;70.48
82148;BME280;71718;50.480;12.110;2024-03-23T07:01:54;96280.47;;;7.59;70.32
82148;BME280;71718;50.480;12.110;2024-03-23T07:04:19;96290.50;;;7.68;72.18
82148;BME280;71718;50.480;12.110;2024-03-23T07:06:45;96303.47;;;7.79;73.30
82148;BME280;71718;50.480;12.110;2024-03-23T07:09:11;96303.94;;;7.88;73.75
82148;BME280;71718;50.480;12.110;2024-03-23T07:11:37;96304.81;;;7.82;70.44
82148;BME280;71718;50.480;12.110;2024-03-23T07:14:03;96312.19;;;7.96;70.49
82148;BME280;71718;50.480;12.110;2024-03-23T07:16:28;96309.72;;;8.01;70.77
82148;BME280;71718;50.480;12.110;2024-03-23T07:18:54;96300.78;;;8.16;69.55
82148;BME280;71718;50.480;12.110;2024-03-23T07:21:19;96295.97;;;8.31;65.38
82148;BME280;71718;50.480;12.110;2024-03-23T07:23:45;96298.44;;;8.49;73.57
82148;BME280;71718;50.480;12.110;2024-03-23T07:26:11;96289.31;;;8.47;68.79
82148;BME280;71718;50.480;12.110;2024-03-23T07:28:36;96286.59;;;8.53;69.21
82148;BME280;71718;50.480;12.110;2024-03-23T07:31:09;96287.19;;;8.67;72.74
82148;BME280;71718;50.480;12.110;2024-03-23T07:33:36;96281.00;;;8.68;72.56
82148;BME280;71718;50.480;12.110;2024-03-23T07:36:02;96271.44;;;8.57;66.13
82148;BME280;71718;50.480;12.110;2024-03-23T07:38:28;96274.47;;;8.54;64.73
82148;BME280;71718;50.480;12.110;2024-03-23T07:41:10;96277.28;;;8.52;70.42
82148;BME280;71718;50.480;12.110;2024-03-23T07:43:39;96285.47;;;8.37;69.78
82148;BME280;71718;50.480;12.110;2024-03-23T07:46:05;96289.50;;;8.22;67.09
82148;BME280;71718;50.480;12.110;2024-03-23T07:48:30;96296.81;;;8.13;65.83
82148;BME280;71718;50.480;12.110;2024-03-23T07:51:07;96298.84;;;8.11;67.32
82148;BME280;71718;50.480;12.110;2024-03-23T07:53:33;96309.63;;;8.08;67.34
82148;BME280;71718;50.480;12.110;2024-03-23T07:56:08;96303.47;;;7.91;65.60
82148;BME280;71718;50.480;12.110;2024-03-23T07:58:34;96291.44;;;7.73;66.94
82148;BME280;71718;50.480;12.110;2024-03-23T08:01:14;96301.13;;;7.59;68.86
82148;BME280;71718;50.480;12.110;2024-03-23T08:03:41;96299.91;;;7.62;68.89
82148;BME280;71718;50.480;12.110;2024-03-23T08:06:10;96312.63;;;7.64;67.32
82148;BME280;71718;50.480;12.110;2024-03-23T08:08:36;96315.75;;;7.66;68.60
82148;BME280;71718;50.480;12.110;2024-03-23T08:11:02;96316.22;;;7.63;68.14
82148;BME280;71718;50.480;12.110;2024-03-23T08:13:27;96331.66;;;7.51;68.75
82148;BME280;71718;50.480;12.110;2024-03-23T08:15:59;96335.75;;;7.40;69.62
82148;BME280;71718;50.480;12.110;2024-03-23T08:18:25;96335.09;;;7.45;70.91
82148;BME280;71718;50.480;12.110;2024-03-23T08:21:01;96341.97;;;7.69;71.88
82148;BME280;71718;50.480;12.110;2024-03-23T08:23:28;96342.22;;;7.79;68.56
82148;BME280;71718;50.480;12.110;2024-03-23T08:25:57;96344.31;;;7.71;71.42
82148;BME280;71718;50.480;12.110;2024-03-23T08:28:24;96344.63;;;7.63;70.74
82148;BME280;71718;50.480;12.110;2024-03-23T08:30:49;96355.84;;;7.56;69.12
82148;BME280;71718;50.480;12.110;2024-03-23T08:33:15;96359.28;;;7.50;69.97
82148;BME280;71718;50.480;12.110;2024-03-23T08:35:41;96372.63;;;7.29;71.15
82148;BME280;71718;50.480;12.110;2024-03-23T08:38:06;96415.59;;;7.05;72.63
82148;BME280;71718;50.480;12.110;2024-03-23T08:40:32;96441.75;;;6.91;74.20
82148;BME280;71718;50.480;12.110;2024-03-23T08:42:57;96450.00;;;6.74;72.89
82148;BME280;71718;50.480;12.110;2024-03-23T08:45:24;96470.94;;;6.60;75.02
82148;BME280;71718;50.480;12.110;2024-03-23T08:47:49;96484.50;;;6.49;74.49
82148;BME280;71718;50.480;12.110;2024-03-23T08:50:15;96500.81;;;6.43;75.45
82148;BME280;71718;50.480;12.110;2024-03-23T08:52:40;96523.41;;;6.41;74.89
82148;BME280;71718;50.480;12.110;2024-03-23T08:55:06;96518.34;;;6.27;76.25
82148;BME280;71718;50.480;12.110;2024-03-23T08:57:31;96546.72;;;6.21;75.61
82148;BME280;71718;50.480;12.110;2024-03-23T08:59:57;96563.03;;;6.02;76.54
82148;BME280;71718;50.480;12.110;2024-03-23T09:02:22;96585.06;;;5.78;77.54
82148;BME280;71718;50.480;12.110;2024-03-23T09:04:48;96601.34;;;5.32;78.74
82148;BME280;71718;50.480;12.110;2024-03-23T09:07:13;96609.88;;;5.20;79.12
82148;BME280;71718;50.480;12.110;2024-03-23T09:09:39;96638.34;;;5.05;78.27
82148;BME280;71718;50.480;12.110;2024-03-23T09:12:04;96647.56;;;4.80;78.31
82148;BME280;71718;50.480;12.110;2024-03-23T09:14:30;96660.94;;;4.55;78.01
82148;BME280;71718;50.480;12.110;2024-03-23T09:16:55;96658.84;;;4.31;75.23
82148;BME280;71718;50.480;12.110;2024-03-23T09:19:21;96664.78;;;4.32;77.16
82148;BME280;71718;50.480;12.110;2024-03-23T09:21:46;96666.59;;;4.38;79.13
82148;BME280;71718;50.480;12.110;2024-03-23T09:24:11;96674.47;;;4.30;75.32
82148;BME280;71718;50.480;12.110;2024-03-23T09:26:37;96678.16;;;4.20;74.55
82148;BME280;71718;50.480;12.110;2024-03-23T09:29:02;96686.84;;;4.19;74.17
82148;BME280;71718;50.480;12.110;2024-03-23T09:31:28;96700.09;;;4.16;72.71
82148;BME280;71718;50.480;12.110;2024-03-23T09:33:53;96691.88;;;4.28;74.24
82148;BME280;71718;50.480;12.110;2024-03-23T09:36:18;96690.56;;;4.45;76.42
82148;BME280;71718;50.480;12.110;2024-03-23T09:38:44;96693.03;;;4.66;73.87
82148;BME280;71718;50.480;12.110;2024-03-23T09:41:09;96699.41;;;4.77;72.25
82148;BME280;71718;50.480;12.110;2024-03-23T09:43:35;96724.16;;;4.78;72.50
82148;BME280;71718;50.480;12.110;2024-03-23T09:46:04;96729.91;;;4.86;72.59
82148;BME280;71718;50.480;12.110;2024-03-23T09:48:29;96731.09;;;4.90;72.51
82148;BME280;71718;50.480;12.110;2024-03-23T09:50:55;96729.19;;;4.99;73.49
82148;BME280;71718;50.480;12.110;2024-03-23T09:53:21;96742.66;;;5.07;72.35
82148;BME280;71718;50.480;12.110;2024-03-23T09:55:46;96755.72;;;5.06;71.92
82148;BME280;71718;50.480;12.110;2024-03-23T09:58:18;96781.63;;;4.98;72.45
82148;BME280;71718;50.480;12.110;2024-03-23T10:00:44;96786.19;;;4.61;72.20
82148;BME280;71718;50.480;12.110;2024-03-23T10:03:09;96798.06;;;4.35;73.62
82148;BME280;71718;50.480;12.110;2024-03-23T10:05:35;96810.63;;;4.23;73.65
82148;BME280;71718;50.480;12.110;2024-03-23T10:08:17;96800.47;;;4.15;76.63
82148;BME280;71718;50.480;12.110;2024-03-23T10:10:43;96802.97;;;4.30;72.98
82148;BME280;71718;50.480;12.110;2024-03-23T10:13:10;96818.69;;;4.41;74.91
82148;BME280;71718;50.480;12.110;2024-03-23T10:15:36;96825.53;;;4.62;71.91
82148;BME280;71718;50.480;12.110;2024-03-23T10:18:18;96832.47;;;4.96;70.84
82148;BME280;71718;50.480;12.110;2024-03-23T10:20:43;96835.00;;;5.24;70.04
82148;BME280;71718;50.480;12.110;2024-03-23T10:23:16;96823.97;;;5.43;69.17
82148;BME280;71718;50.480;12.110;2024-03-23T10:25:41;96827.19;;;5.52;67.37
82148;BME280;71718;50.480;12.110;2024-03-23T10:28:07;96834.88;;;5.45;68.38
82148;BME280;71718;50.480;12.110;2024-03-23T10:30:32;96837.78;;;5.29;69.03
82148;BME280;71718;50.480;12.110;2024-03-23T10:33:10;96837.59;;;5.37;68.58
82148;BME280;71718;50.480;12.110;2024-03-23T10:35:39;96838.00;;;5.34;69.75
82148;BME280;71718;50.480;12.110;2024-03-23T10:38:05;96835.47;;;5.47;67.86
82148;BME280;71718;50.480;12.110;2024-03-23T10:40:33;96836.91;;;5.63;65.07
82148;BME280;71718;50.480;12.110;2024-03-23T10:43:00;96839.16;;;5.85;65.35
82148;BME280;71718;50.480;12.110;2024-03-23T10:45:25;96845.34;;;5.98;66.57
82148;BME280;71718;50.480;12.110;2024-03-23T10:47:51;96857.41;;;5.97;64.86
82148;BME280;71718;50.480;12.110;2024-03-23T10:50:16;96860.38;;;5.87;64.04
82148;BME280;71718;50.480;12.110;2024-03-23T10:52:46;96864.13;;;5.85;64.72
82148;BME280;71718;50.480;12.110;2024-03-23T10:55:14;96852.84;;;5.93;66.47
82148;BME280;71718;50.480;12.110;2024-03-23T10:57:44;96861.59;;;5.98;63.92
82148;BME280;71718;50.480;12.110;2024-03-23T11:00:11;96869.91;;;6.07;65.02
82148;BME280;71718;50.480;12.110;2024-03-23T11:02:37;96882.78;;;6.00;63.96
82148;BME280;71718;50.480;12.110;2024-03-23T11:07:51;96886.91;;;5.81;62.68
82148;BME280;71718;50.480;12.110;2024-03-23T11:12:50;96877.53;;;5.61;65.52
82148;BME280;71718;50.480;12.110;2024-03-23T11:15:15;96884.88;;;5.70;66.00
82148;BME280;71718;50.480;12.110;2024-03-23T11:17:40;96869.09;;;5.86;65.90
82148;BME280;71718;50.480;12.110;2024-03-23T11:20:06;96877.88;;;6.12;62.88
82148;BME280;71718;50.480;12.110;2024-03-23T11:27:39;96864.63;;;6.67;60.26
82148;BME280;71718;50.480;12.110;2024-03-23T11:30:21;96863.00;;;7.06;60.55
82148;BME280;71718;50.480;12.110;2024-03-23T11:32:47;96853.41;;;7.19;63.00
82148;BME280;71718;50.480;12.110;2024-03-23T11:35:29;96871.50;;;7.13;60.09
82148;BME280;71718;50.480;12.110;2024-03-23T11:38:17;96882.03;;;7.05;61.58
82148;BME280;71718;50.480;12.110;2024-03-23T11:40:47;96900.34;;;6.84;57.85
82148;BME280;71718;50.480;12.110;2024-03-23T11:43:17;96897.59;;;6.65;63.70
82148;BME280;71718;50.480;12.110;2024-03-23T11:45:51;96900.34;;;6.57;61.03
82148;BME280;71718;50.480;12.110;2024-03-23T11:48:18;96903.31;;;6.48;58.19
82148;BME280;71718;50.480;12.110;2024-03-23T11:50:48;96906.91;;;6.53;60.30
82148;BME280;71718;50.480;12.110;2024-03-23T11:53:16;96911.66;;;6.43;58.88
82148;BME280;71718;50.480;12.110;2024-03-23T11:58:18;96903.34;;;6.54;57.22
82148;BME280;71718;50.480;12.110;2024-03-23T12:01:00;96906.69;;;6.42;61.52
82148;BME280;71718;50.480;12.110;2024-03-23T12:03:26;96902.34;;;6.55;57.10
82148;BME280;71718;50.480;12.110;2024-03-23T12:05:53;96886.06;;;6.81;57.58
82148;BME280;71718;50.480;12.110;2024-03-23T12:08:21;96886.41;;;6.98;57.83
82148;BME280;71718;50.480;12.110;2024-03-23T12:11:03;96884.41;;;7.13;54.57
82148;BME280;71718;50.480;12.110;2024-03-23T12:13:29;96882.06;;;7.63;54.80
82148;BME280;71718;50.480;12.110;2024-03-23T12:15:55;96886.28;;;7.50;56.55
82148;BME280;71718;50.480;12.110;2024-03-23T12:18:23;96886.03;;;6.88;51.24
82148;BME280;71718;50.480;12.110;2024-03-23T12:20:49;96889.59;;;7.00;52.98
82148;BME280;71718;50.480;12.110;2024-03-23T12:23:15;96875.47;;;7.22;58.38
82148;BME280;71718;50.480;12.110;2024-03-23T12:25:40;96883.94;;;7.42;53.84
82148;BME280;71718;50.480;12.110;2024-03-23T12:28:06;96883.09;;;7.55;53.86
82148;BME280;71718;50.480;12.110;2024-03-23T12:30:33;96887.06;;;7.57;52.17
82148;BME280;71718;50.480;12.110;2024-03-23T12:32:59;96881.31;;;7.49;54.54
82148;BME280;71718;50.480;12.110;2024-03-23T12:35:24;96876.41;;;7.34;51.96
82148;BME280;71718;50.480;12.110;2024-03-23T12:37:50;96880.56;;;7.42;51.64
82148;BME280;71718;50.480;12.110;2024-03-23T12:40:15;96871.66;;;7.25;52.35
82148;BME280;71718;50.480;12.110;2024-03-23T12:42:41;96866.66;;;7.36;49.84
82148;BME280;71718;50.480;12.110;2024-03-23T12:45:06;96862.56;;;7.67;49.74
82148;BME280;71718;50.480;12.110;2024-03-23T12:47:32;96867.69;;;7.80;52.15
82148;BME280;71718;50.480;12.110;2024-03-23T12:49:57;96874.41;;;7.81;50.92
82148;BME280;71718;50.480;12.110;2024-03-23T12:52:23;96873.88;;;7.72;50.07
82148;BME280;71718;50.480;12.110;2024-03-23T12:54:48;96865.25;;;7.40;50.93
82148;BME280;71718;50.480;12.110;2024-03-23T12:57:13;96867.22;;;7.45;53.01
82148;BME280;71718;50.480;12.110;2024-03-23T12:59:39;96871.22;;;7.47;52.65
82148;BME280;71718;50.480;12.110;2024-03-23T13:02:04;96875.19;;;7.43;54.77
82148;BME280;71718;50.480;12.110;2024-03-23T13:04:30;96886.13;;;7.39;51.35
82148;BME280;71718;50.480;12.110;2024-03-23T13:06:55;96870.22;;;7.48;53.01
82148;BME280;71718;50.480;12.110;2024-03-23T13:09:20;96872.19;;;7.53;52.82
82148;BME280;71718;50.480;12.110;2024-03-23T13:11:46;96863.72;;;7.33;52.81
82148;BME280;71718;50.480;12.110;2024-03-23T13:14:11;96871.69;;;7.18;54.71
82148;BME280;71718;50.480;12.110;2024-03-23T13:16:37;96857.16;;;7.24;54.19
82148;BME280;71718;50.480;12.110;2024-03-23T13:19:02;96867.28;;;7.25;54.90
82148;BME280;71718;50.480;12.110;2024-03-23T13:21:27;96870.84;;;7.31;52.93
82148;BME280;71718;50.480;12.110;2024-03-23T13:23:53;96866.28;;;7.33;52.48
82148;BME280;71718;50.480;12.110;2024-03-23T13:26:18;96862.75;;;7.21;56.88
82148;BME280;71718;50.480;12.110;2024-03-23T13:28:44;96864.69;;;7.32;52.54
82148;BME280;71718;50.480;12.110;2024-03-23T13:31:09;96861.34;;;7.25;55.51
82148;BME280;71718;50.480;12.110;2024-03-23T13:33:34;96858.94;;;7.23;56.46
82148;BME280;71718;50.480;12.110;2024-03-23T13:36:00;96846.97;;;7.42;56.10
82148;BME280;71718;50.480;12.110;2024-03-23T13:38:25;96838.63;;;7.40;56.97
82148;BME280;71718;50.480;12.110;2024-03-23T13:40:59;96832.72;;;7.26;59.51
82148;BME280;71718;50.480;12.110;2024-03-23T13:43:26;96829.97;;;7.21;51.91
82148;BME280;71718;50.480;12.110;2024-03-23T13:46:01;96826.59;;;7.14;57.63
82148;BME280;71718;50.480;12.110;2024-03-23T13:48:27;96837.56;;;7.09;58.23
82148;BME280;71718;50.480;12.110;2024-03-23T13:51:03;96832.13;;;7.24;56.24
82148;BME280;71718;50.480;12.110;2024-03-23T13:53:29;96837.25;;;7.37;57.05
82148;BME280;71718;50.480;12.110;2024-03-23T13:55:55;96839.50;;;7.65;56.30
82148;BME280;71718;50.480;12.110;2024-03-23T13:58:21;96830.75;;;7.73;51.67
82148;BME280;71718;50.480;12.110;2024-03-23T14:00:46;96837.19;;;7.95;54.81